sensor_id;sensor_type;location;lat;lon;timestamp;P1;durP1;ratioP1;P2;durP2;ratioP2
35326;SDS011;21436;52.348;20.928;2022-12-10T00:01:48;143.73;;;49.35;;
35326;SDS011;21436;52.348;20.928;2022-12-10T00:04:17;140.35;;;49.85;;
35326;SDS011;21436;52.348;20.928;2022-12-10T00:06:46;146.65;;;50.47;;
35326;SDS011;21436;52.348;20.928;2022-12-10T00:09:15;131.93;;;49.33;;
35326;SDS011;21436;52.348;20.928;2022-12-10T00:11:44;133.60;;;47.53;;
35326;SDS011;21436;52.348;20.928;2022-12-10T00:14:12;143.50;;;50.90;;
35326;SDS011;21436;52.348;20.928;2022-12-10T00:16:41;141.13;;;47.95;;
35326;SDS011;21436;52.348;20.928;2022-12-10T00:19:09;141.73;;;47.08;;
35326;SDS011;21436;52.348;20.928;2022-12-10T00:21:37;146.30;;;52.03;;
35326;SDS011;21436;52.348;20.928;2022-12-10T00:24:06;143.82;;;48.83;;
35326;SDS011;21436;52.348;20.928;2022-12-10T00:26:34;138.63;;;48.22;;
35326;SDS011;21436;52.348;20.928;2022-12-10T00:29:05;141.38;;;49.63;;
35326;SDS011;21436;52.348;20.928;2022-12-10T00:31:35;140.15;;;48.53;;
35326;SDS011;21436;52.348;20.928;2022-12-10T00:34:05;142.18;;;48.75;;
35326;SDS011;21436;52.348;20.928;2022-12-10T00:36:45;149.48;;;50.13;;
35326;SDS011;21436;52.348;20.928;2022-12-10T00:39:17;136.32;;;49.55;;
35326;SDS011;21436;52.348;20.928;2022-12-10T00:41:46;134.82;;;50.33;;
35326;SDS011;21436;52.348;20.928;2022-12-10T00:44:14;142.20;;;48.28;;
35326;SDS011;21436;52.348;20.928;2022-12-10T00:46:43;134.82;;;49.70;;
35326;SDS011;21436;52.348;20.928;2022-12-10T00:49:12;147.23;;;50.67;;
35326;SDS011;21436;52.348;20.928;2022-12-10T00:51:40;142.50;;;51.08;;
35326;SDS011;21436;52.348;20.928;2022-12-10T00:54:11;136.68;;;46.47;;
35326;SDS011;21436;52.348;20.928;2022-12-10T00:56:39;148.60;;;52.33;;
35326;SDS011;21436;52.348;20.928;2022-12-10T00:59:08;145.27;;;51.03;;
35326;SDS011;21436;52.348;20.928;2022-12-10T01:01:36;137.90;;;48.90;;
35326;SDS011;21436;52.348;20.928;2022-12-10T01:04:10;143.63;;;51.25;;
35326;SDS011;21436;52.348;20.928;2022-12-10T01:06:43;136.10;;;46.47;;
35326;SDS011;21436;52.348;20.928;2022-12-10T01:09:23;146.70;;;46.83;;
35326;SDS011;21436;52.348;20.928;2022-12-10T01:11:53;145.38;;;50.65;;
35326;SDS011;21436;52.348;20.928;2022-12-10T01:14:24;138.80;;;49.33;;
35326;SDS011;21436;52.348;20.928;2022-12-10T01:16:54;145.57;;;48.33;;
35326;SDS011;21436;52.348;20.928;2022-12-10T01:19:25;145.25;;;51.72;;
35326;SDS011;21436;52.348;20.928;2022-12-10T01:21:53;142.65;;;49.83;;
35326;SDS011;21436;52.348;20.928;2022-12-10T01:24:23;140.30;;;47.47;;
35326;SDS011;21436;52.348;20.928;2022-12-10T01:26:52;146.48;;;51.78;;
35326;SDS011;21436;52.348;20.928;2022-12-10T01:29:22;139.77;;;49.63;;
35326;SDS011;21436;52.348;20.928;2022-12-10T01:31:51;144.25;;;50.53;;
35326;SDS011;21436;52.348;20.928;2022-12-10T01:34:21;161.90;;;51.03;;
35326;SDS011;21436;52.348;20.928;2022-12-10T01:36:51;143.57;;;49.63;;
35326;SDS011;21436;52.348;20.928;2022-12-10T01:39:21;156.00;;;51.38;;
35326;SDS011;21436;52.348;20.928;2022-12-10T01:41:53;132.57;;;45.22;;
35326;SDS011;21436;52.348;20.928;2022-12-10T01:46:53;135.00;;;48.90;;
35326;SDS011;21436;52.348;20.928;2022-12-10T01:49:37;137.90;;;48.10;;
35326;SDS011;21436;52.348;20.928;2022-12-10T01:52:08;144.07;;;50.53;;
35326;SDS011;21436;52.348;20.928;2022-12-10T01:54:39;139.63;;;47.55;;
35326;SDS011;21436;52.348;20.928;2022-12-10T01:59:51;139.75;;;46.85;;
35326;SDS011;21436;52.348;20.928;2022-12-10T02:08:06;143.68;;;50.13;;
35326;SDS011;21436;52.348;20.928;2022-12-10T02:13:51;145.25;;;47.15;;
35326;SDS011;21436;52.348;20.928;2022-12-10T02:16:33;138.73;;;46.58;;
35326;SDS011;21436;52.348;20.928;2022-12-10T02:19:14;136.45;;;45.83;;
35326;SDS011;21436;52.348;20.928;2022-12-10T02:24:18;138.85;;;48.38;;
35326;SDS011;21436;52.348;20.928;2022-12-10T02:29:24;141.20;;;45.87;;
35326;SDS011;21436;52.348;20.928;2022-12-10T02:32:12;133.48;;;44.40;;
35326;SDS011;21436;52.348;20.928;2022-12-10T02:34:44;144.02;;;46.78;;
35326;SDS011;21436;52.348;20.928;2022-12-10T02:37:27;139.93;;;46.72;;
35326;SDS011;21436;52.348;20.928;2022-12-10T02:39:59;145.43;;;46.72;;
35326;SDS011;21436;52.348;20.928;2022-12-10T02:42:38;133.52;;;45.20;;
35326;SDS011;21436;52.348;20.928;2022-12-10T02:45:08;135.23;;;45.42;;
35326;SDS011;21436;52.348;20.928;2022-12-10T02:47:39;133.55;;;43.17;;
35326;SDS011;21436;52.348;20.928;2022-12-10T02:50:08;132.95;;;44.35;;
35326;SDS011;21436;52.348;20.928;2022-12-10T02:52:38;142.30;;;45.40;;
35326;SDS011;21436;52.348;20.928;2022-12-10T02:55:06;133.30;;;43.28;;
35326;SDS011;21436;52.348;20.928;2022-12-10T03:00:27;141.90;;;44.50;;
35326;SDS011;21436;52.348;20.928;2022-12-10T03:03:15;148.65;;;45.08;;
35326;SDS011;21436;52.348;20.928;2022-12-10T03:06:07;141.57;;;42.63;;
35326;SDS011;21436;52.348;20.928;2022-12-10T03:08:47;149.63;;;43.97;;
35326;SDS011;21436;52.348;20.928;2022-12-10T03:11:21;149.45;;;45.22;;
35326;SDS011;21436;52.348;20.928;2022-12-10T03:13:58;124.40;;;39.53;;
35326;SDS011;21436;52.348;20.928;2022-12-10T03:16:34;142.98;;;46.50;;
35326;SDS011;21436;52.348;20.928;2022-12-10T03:19:05;146.80;;;44.13;;
35326;SDS011;21436;52.348;20.928;2022-12-10T03:21:34;135.82;;;44.17;;
35326;SDS011;21436;52.348;20.928;2022-12-10T03:24:08;137.60;;;43.13;;
35326;SDS011;21436;52.348;20.928;2022-12-10T03:26:37;142.35;;;44.95;;
35326;SDS011;21436;52.348;20.928;2022-12-10T03:29:08;122.68;;;37.03;;
35326;SDS011;21436;52.348;20.928;2022-12-10T03:31:51;143.40;;;41.97;;
35326;SDS011;21436;52.348;20.928;2022-12-10T03:34:20;143.82;;;43.70;;
35326;SDS011;21436;52.348;20.928;2022-12-10T03:36:48;128.60;;;40.75;;
35326;SDS011;21436;52.348;20.928;2022-12-10T03:39:17;133.95;;;42.55;;
35326;SDS011;21436;52.348;20.928;2022-12-10T03:41:45;142.93;;;44.05;;
35326;SDS011;21436;52.348;20.928;2022-12-10T03:44:13;139.85;;;42.97;;
35326;SDS011;21436;52.348;20.928;2022-12-10T03:46:57;146.90;;;44.45;;
35326;SDS011;21436;52.348;20.928;2022-12-10T03:49:26;132.70;;;41.58;;
35326;SDS011;21436;52.348;20.928;2022-12-10T03:51:54;139.75;;;40.58;;
35326;SDS011;21436;52.348;20.928;2022-12-10T03:54:23;142.02;;;42.92;;
35326;SDS011;21436;52.348;20.928;2022-12-10T03:56:51;152.90;;;41.17;;
35326;SDS011;21436;52.348;20.928;2022-12-10T03:59:19;125.65;;;39.40;;
35326;SDS011;21436;52.348;20.928;2022-12-10T04:01:47;137.75;;;41.30;;
35326;SDS011;21436;52.348;20.928;2022-12-10T04:04:16;121.80;;;39.42;;
35326;SDS011;21436;52.348;20.928;2022-12-10T04:06:44;136.82;;;40.83;;
35326;SDS011;21436;52.348;20.928;2022-12-10T04:09:14;135.00;;;39.40;;
35326;SDS011;21436;52.348;20.928;2022-12-10T04:11:42;128.90;;;39.35;;
35326;SDS011;21436;52.348;20.928;2022-12-10T04:14:12;146.63;;;41.67;;
35326;SDS011;21436;52.348;20.928;2022-12-10T04:16:59;149.82;;;40.35;;
35326;SDS011;21436;52.348;20.928;2022-12-10T04:19:28;125.65;;;39.67;;
35326;SDS011;21436;52.348;20.928;2022-12-10T04:21:56;142.55;;;41.05;;
35326;SDS011;21436;52.348;20.928;2022-12-10T04:24:43;134.27;;;38.67;;
35326;SDS011;21436;52.348;20.928;2022-12-10T04:27:31;136.80;;;40.00;;
35326;SDS011;21436;52.348;20.928;2022-12-10T04:30:02;148.63;;;42.38;;
35326;SDS011;21436;52.348;20.928;2022-12-10T04:32:31;150.00;;;42.30;;
35326;SDS011;21436;52.348;20.928;2022-12-10T04:35:00;153.15;;;41.25;;
35326;SDS011;21436;52.348;20.928;2022-12-10T04:37:28;142.80;;;41.60;;
35326;SDS011;21436;52.348;20.928;2022-12-10T04:39:56;145.35;;;40.22;;
35326;SDS011;21436;52.348;20.928;2022-12-10T04:42:24;141.05;;;42.65;;
35326;SDS011;21436;52.348;20.928;2022-12-10T04:44:53;151.10;;;41.70;;
35326;SDS011;21436;52.348;20.928;2022-12-10T04:47:21;134.80;;;36.63;;
35326;SDS011;21436;52.348;20.928;2022-12-10T04:49:49;135.82;;;39.78;;
35326;SDS011;21436;52.348;20.928;2022-12-10T04:52:18;130.90;;;39.42;;
35326;SDS011;21436;52.348;20.928;2022-12-10T04:54:46;133.65;;;39.63;;
35326;SDS011;21436;52.348;20.928;2022-12-10T04:57:14;133.15;;;39.40;;
35326;SDS011;21436;52.348;20.928;2022-12-10T04:59:42;127.53;;;38.63;;
35326;SDS011;21436;52.348;20.928;2022-12-10T05:02:10;131.68;;;34.58;;
35326;SDS011;21436;52.348;20.928;2022-12-10T05:04:39;112.95;;;35.88;;
35326;SDS011;21436;52.348;20.928;2022-12-10T05:07:07;134.00;;;37.00;;
35326;SDS011;21436;52.348;20.928;2022-12-10T05:09:35;122.07;;;35.30;;
35326;SDS011;21436;52.348;20.928;2022-12-10T05:12:03;125.45;;;37.85;;
35326;SDS011;21436;52.348;20.928;2022-12-10T05:14:32;114.07;;;37.58;;
35326;SDS011;21436;52.348;20.928;2022-12-10T05:17:00;135.68;;;39.15;;
35326;SDS011;21436;52.348;20.928;2022-12-10T05:19:28;134.48;;;41.33;;
35326;SDS011;21436;52.348;20.928;2022-12-10T05:21:56;114.63;;;38.28;;
35326;SDS011;21436;52.348;20.928;2022-12-10T05:24:43;119.30;;;36.13;;
35326;SDS011;21436;52.348;20.928;2022-12-10T05:27:11;107.85;;;30.60;;
35326;SDS011;21436;52.348;20.928;2022-12-10T05:29:39;112.57;;;34.35;;
35326;SDS011;21436;52.348;20.928;2022-12-10T05:32:07;121.18;;;36.63;;
35326;SDS011;21436;52.348;20.928;2022-12-10T05:34:35;118.00;;;35.58;;
35326;SDS011;21436;52.348;20.928;2022-12-10T05:37:03;121.55;;;37.70;;
35326;SDS011;21436;52.348;20.928;2022-12-10T05:39:31;116.53;;;36.28;;
35326;SDS011;21436;52.348;20.928;2022-12-10T05:41:59;95.57;;;30.85;;
35326;SDS011;21436;52.348;20.928;2022-12-10T05:44:27;127.97;;;37.60;;
35326;SDS011;21436;52.348;20.928;2022-12-10T05:46:56;112.05;;;33.22;;
35326;SDS011;21436;52.348;20.928;2022-12-10T05:49:24;98.63;;;30.05;;
35326;SDS011;21436;52.348;20.928;2022-12-10T05:51:53;94.85;;;30.25;;
35326;SDS011;21436;52.348;20.928;2022-12-10T05:54:23;88.43;;;28.55;;
35326;SDS011;21436;52.348;20.928;2022-12-10T05:56:51;96.07;;;30.27;;
35326;SDS011;21436;52.348;20.928;2022-12-10T05:59:20;108.95;;;31.38;;
35326;SDS011;21436;52.348;20.928;2022-12-10T06:01:48;92.00;;;29.15;;
35326;SDS011;21436;52.348;20.928;2022-12-10T06:04:16;97.30;;;28.10;;
35326;SDS011;21436;52.348;20.928;2022-12-10T06:06:44;92.07;;;27.23;;
35326;SDS011;21436;52.348;20.928;2022-12-10T06:09:15;98.75;;;31.50;;
35326;SDS011;21436;52.348;20.928;2022-12-10T06:11:42;102.68;;;30.67;;
35326;SDS011;21436;52.348;20.928;2022-12-10T06:14:10;95.28;;;29.08;;
35326;SDS011;21436;52.348;20.928;2022-12-10T06:16:38;98.78;;;29.58;;
35326;SDS011;21436;52.348;20.928;2022-12-10T06:19:07;86.95;;;28.25;;
35326;SDS011;21436;52.348;20.928;2022-12-10T06:21:35;90.55;;;28.08;;
35326;SDS011;21436;52.348;20.928;2022-12-10T06:24:04;84.20;;;26.45;;
35326;SDS011;21436;52.348;20.928;2022-12-10T06:26:32;95.95;;;30.45;;
35326;SDS011;21436;52.348;20.928;2022-12-10T06:29:00;93.40;;;28.90;;
35326;SDS011;21436;52.348;20.928;2022-12-10T06:31:28;101.70;;;31.45;;
35326;SDS011;21436;52.348;20.928;2022-12-10T06:33:57;117.90;;;33.47;;
35326;SDS011;21436;52.348;20.928;2022-12-10T06:36:25;112.72;;;31.95;;
35326;SDS011;21436;52.348;20.928;2022-12-10T06:38:53;100.65;;;30.08;;
35326;SDS011;21436;52.348;20.928;2022-12-10T06:41:21;91.50;;;27.27;;
35326;SDS011;21436;52.348;20.928;2022-12-10T06:43:49;100.82;;;32.08;;
35326;SDS011;21436;52.348;20.928;2022-12-10T06:46:19;113.55;;;32.80;;
35326;SDS011;21436;52.348;20.928;2022-12-10T06:48:48;112.57;;;35.33;;
35326;SDS011;21436;52.348;20.928;2022-12-10T06:51:16;113.22;;;32.85;;
35326;SDS011;21436;52.348;20.928;2022-12-10T06:53:46;115.22;;;33.67;;
35326;SDS011;21436;52.348;20.928;2022-12-10T06:56:15;117.18;;;34.13;;
35326;SDS011;21436;52.348;20.928;2022-12-10T06:58:46;123.10;;;33.50;;
35326;SDS011;21436;52.348;20.928;2022-12-10T07:01:19;118.88;;;35.00;;
35326;SDS011;21436;52.348;20.928;2022-12-10T07:03:49;117.38;;;32.83;;
35326;SDS011;21436;52.348;20.928;2022-12-10T07:06:18;110.05;;;31.90;;
35326;SDS011;21436;52.348;20.928;2022-12-10T07:08:48;120.63;;;35.45;;
35326;SDS011;21436;52.348;20.928;2022-12-10T07:11:17;107.38;;;32.70;;
35326;SDS011;21436;52.348;20.928;2022-12-10T07:13:47;116.15;;;31.88;;
35326;SDS011;21436;52.348;20.928;2022-12-10T07:16:19;124.72;;;34.03;;
35326;SDS011;21436;52.348;20.928;2022-12-10T07:18:49;123.68;;;34.67;;
35326;SDS011;21436;52.348;20.928;2022-12-10T07:21:41;99.13;;;28.63;;
35326;SDS011;21436;52.348;20.928;2022-12-10T07:24:16;103.88;;;31.90;;
35326;SDS011;21436;52.348;20.928;2022-12-10T07:26:45;96.80;;;29.48;;
35326;SDS011;21436;52.348;20.928;2022-12-10T07:29:15;118.88;;;33.40;;
35326;SDS011;21436;52.348;20.928;2022-12-10T07:31:45;113.57;;;32.38;;
35326;SDS011;21436;52.348;20.928;2022-12-10T07:34:16;106.80;;;32.72;;
35326;SDS011;21436;52.348;20.928;2022-12-10T07:36:44;95.45;;;27.77;;
35326;SDS011;21436;52.348;20.928;2022-12-10T07:39:13;89.10;;;29.67;;
35326;SDS011;21436;52.348;20.928;2022-12-10T07:41:49;98.82;;;28.58;;
35326;SDS011;21436;52.348;20.928;2022-12-10T07:44:20;86.68;;;26.40;;
35326;SDS011;21436;52.348;20.928;2022-12-10T07:46:50;89.05;;;26.40;;
35326;SDS011;21436;52.348;20.928;2022-12-10T07:49:19;88.18;;;26.27;;
35326;SDS011;21436;52.348;20.928;2022-12-10T07:51:48;87.53;;;25.63;;
35326;SDS011;21436;52.348;20.928;2022-12-10T07:54:18;89.30;;;26.60;;
35326;SDS011;21436;52.348;20.928;2022-12-10T07:56:46;84.38;;;25.80;;
35326;SDS011;21436;52.348;20.928;2022-12-10T07:59:15;83.25;;;25.08;;
35326;SDS011;21436;52.348;20.928;2022-12-10T08:01:42;91.10;;;25.75;;
35326;SDS011;21436;52.348;20.928;2022-12-10T08:04:11;69.57;;;22.05;;
35326;SDS011;21436;52.348;20.928;2022-12-10T08:06:39;93.35;;;25.60;;
35326;SDS011;21436;52.348;20.928;2022-12-10T08:09:08;74.78;;;22.80;;
35326;SDS011;21436;52.348;20.928;2022-12-10T08:11:37;83.88;;;24.83;;
35326;SDS011;21436;52.348;20.928;2022-12-10T08:14:06;84.75;;;24.88;;
35326;SDS011;21436;52.348;20.928;2022-12-10T08:16:33;80.72;;;21.88;;
35326;SDS011;21436;52.348;20.928;2022-12-10T08:19:02;73.93;;;22.33;;
35326;SDS011;21436;52.348;20.928;2022-12-10T08:21:31;86.00;;;24.05;;
35326;SDS011;21436;52.348;20.928;2022-12-10T08:24:00;76.80;;;23.85;;
35326;SDS011;21436;52.348;20.928;2022-12-10T08:26:29;83.75;;;24.42;;
35326;SDS011;21436;52.348;20.928;2022-12-10T08:28:59;82.38;;;23.02;;
35326;SDS011;21436;52.348;20.928;2022-12-10T08:31:28;77.45;;;24.75;;
35326;SDS011;21436;52.348;20.928;2022-12-10T08:34:04;70.53;;;24.60;;
35326;SDS011;21436;52.348;20.928;2022-12-10T08:36:32;86.57;;;23.20;;
35326;SDS011;21436;52.348;20.928;2022-12-10T08:39:01;82.72;;;23.95;;
35326;SDS011;21436;52.348;20.928;2022-12-10T08:41:29;78.10;;;23.20;;
35326;SDS011;21436;52.348;20.928;2022-12-10T08:43:57;83.35;;;25.52;;
35326;SDS011;21436;52.348;20.928;2022-12-10T08:46:25;85.05;;;25.95;;
35326;SDS011;21436;52.348;20.928;2022-12-10T08:48:54;82.78;;;23.38;;
35326;SDS011;21436;52.348;20.928;2022-12-10T08:51:22;83.68;;;24.17;;
35326;SDS011;21436;52.348;20.928;2022-12-10T08:53:50;80.72;;;25.42;;
35326;SDS011;21436;52.348;20.928;2022-12-10T08:56:18;78.47;;;22.38;;
35326;SDS011;21436;52.348;20.928;2022-12-10T08:58:47;73.20;;;22.70;;
35326;SDS011;21436;52.348;20.928;2022-12-10T09:01:16;80.57;;;24.20;;
35326;SDS011;21436;52.348;20.928;2022-12-10T09:03:45;72.13;;;22.55;;
35326;SDS011;21436;52.348;20.928;2022-12-10T09:06:14;82.47;;;23.00;;
35326;SDS011;21436;52.348;20.928;2022-12-10T09:08:45;69.70;;;23.92;;
35326;SDS011;21436;52.348;20.928;2022-12-10T09:11:15;74.38;;;23.75;;
35326;SDS011;21436;52.348;20.928;2022-12-10T09:13:49;70.20;;;22.13;;
35326;SDS011;21436;52.348;20.928;2022-12-10T09:16:17;76.95;;;22.73;;
35326;SDS011;21436;52.348;20.928;2022-12-10T09:18:46;75.90;;;22.95;;
35326;SDS011;21436;52.348;20.928;2022-12-10T09:21:14;85.30;;;23.85;;
35326;SDS011;21436;52.348;20.928;2022-12-10T09:23:44;85.45;;;24.33;;
35326;SDS011;21436;52.348;20.928;2022-12-10T09:26:13;80.93;;;24.17;;
35326;SDS011;21436;52.348;20.928;2022-12-10T09:28:43;79.68;;;24.40;;
35326;SDS011;21436;52.348;20.928;2022-12-10T09:31:11;79.20;;;24.20;;
35326;SDS011;21436;52.348;20.928;2022-12-10T09:33:50;77.28;;;23.67;;
35326;SDS011;21436;52.348;20.928;2022-12-10T09:36:20;77.63;;;23.63;;
35326;SDS011;21436;52.348;20.928;2022-12-10T09:38:49;75.57;;;22.77;;
35326;SDS011;21436;52.348;20.928;2022-12-10T09:46:52;80.13;;;23.77;;
35326;SDS011;21436;52.348;20.928;2022-12-10T09:51:55;90.65;;;25.33;;
35326;SDS011;21436;52.348;20.928;2022-12-10T09:54:31;75.20;;;23.30;;
35326;SDS011;21436;52.348;20.928;2022-12-10T09:57:02;84.65;;;25.45;;
35326;SDS011;21436;52.348;20.928;2022-12-10T09:59:35;91.07;;;25.77;;
35326;SDS011;21436;52.348;20.928;2022-12-10T10:02:18;83.07;;;25.10;;
35326;SDS011;21436;52.348;20.928;2022-12-10T10:04:56;85.22;;;26.42;;
35326;SDS011;21436;52.348;20.928;2022-12-10T10:07:50;71.40;;;22.30;;
35326;SDS011;21436;52.348;20.928;2022-12-10T10:10:25;73.83;;;22.53;;
35326;SDS011;21436;52.348;20.928;2022-12-10T10:13:01;54.88;;;18.10;;
35326;SDS011;21436;52.348;20.928;2022-12-10T10:15:41;85.25;;;24.92;;
35326;SDS011;21436;52.348;20.928;2022-12-10T10:21:07;72.40;;;23.85;;
35326;SDS011;21436;52.348;20.928;2022-12-10T10:23:44;68.43;;;21.70;;
35326;SDS011;21436;52.348;20.928;2022-12-10T10:26:13;75.18;;;23.58;;
35326;SDS011;21436;52.348;20.928;2022-12-10T10:28:41;74.55;;;21.27;;
35326;SDS011;21436;52.348;20.928;2022-12-10T10:31:24;70.78;;;22.33;;
35326;SDS011;21436;52.348;20.928;2022-12-10T10:34:02;76.35;;;22.65;;
35326;SDS011;21436;52.348;20.928;2022-12-10T10:36:36;73.18;;;23.42;;
35326;SDS011;21436;52.348;20.928;2022-12-10T10:41:39;79.95;;;22.60;;
35326;SDS011;21436;52.348;20.928;2022-12-10T10:44:15;66.60;;;20.48;;
35326;SDS011;21436;52.348;20.928;2022-12-10T10:46:45;72.25;;;21.73;;
35326;SDS011;21436;52.348;20.928;2022-12-10T10:51:52;70.53;;;22.55;;
35326;SDS011;21436;52.348;20.928;2022-12-10T10:57:14;64.95;;;21.48;;
35326;SDS011;21436;52.348;20.928;2022-12-10T10:59:47;67.45;;;20.67;;
35326;SDS011;21436;52.348;20.928;2022-12-10T11:02:18;76.50;;;22.65;;
35326;SDS011;21436;52.348;20.928;2022-12-10T11:05:07;75.50;;;22.15;;
35326;SDS011;21436;52.348;20.928;2022-12-10T11:07:45;87.20;;;23.38;;
35326;SDS011;21436;52.348;20.928;2022-12-10T11:10:21;67.25;;;22.00;;
35326;SDS011;21436;52.348;20.928;2022-12-10T11:12:58;69.85;;;23.33;;
35326;SDS011;21436;52.348;20.928;2022-12-10T11:21:00;68.88;;;20.75;;
35326;SDS011;21436;52.348;20.928;2022-12-10T11:23:48;85.57;;;23.25;;
35326;SDS011;21436;52.348;20.928;2022-12-10T11:26:32;78.82;;;23.17;;
35326;SDS011;21436;52.348;20.928;2022-12-10T11:32:11;70.60;;;19.95;;
35326;SDS011;21436;52.348;20.928;2022-12-10T11:40:47;55.33;;;17.35;;
35326;SDS011;21436;52.348;20.928;2022-12-10T11:43:30;68.20;;;19.95;;
35326;SDS011;21436;52.348;20.928;2022-12-10T11:46:28;73.30;;;20.75;;
35326;SDS011;21436;52.348;20.928;2022-12-10T11:49:24;59.30;;;17.40;;
35326;SDS011;21436;52.348;20.928;2022-12-10T11:52:30;51.15;;;16.45;;
35326;SDS011;21436;52.348;20.928;2022-12-10T11:57:41;68.50;;;20.98;;
35326;SDS011;21436;52.348;20.928;2022-12-10T12:00:16;55.90;;;16.42;;
35326;SDS011;21436;52.348;20.928;2022-12-10T12:11:05;62.58;;;21.10;;
35326;SDS011;21436;52.348;20.928;2022-12-10T12:13:48;55.92;;;18.60;;
35326;SDS011;21436;52.348;20.928;2022-12-10T12:16:46;55.28;;;18.52;;
35326;SDS011;21436;52.348;20.928;2022-12-10T12:19:18;55.75;;;17.75;;
35326;SDS011;21436;52.348;20.928;2022-12-10T12:21:50;53.63;;;16.80;;
35326;SDS011;21436;52.348;20.928;2022-12-10T12:24:31;63.17;;;18.33;;
35326;SDS011;21436;52.348;20.928;2022-12-10T12:27:25;51.88;;;17.20;;
35326;SDS011;21436;52.348;20.928;2022-12-10T12:29:58;52.60;;;17.85;;
35326;SDS011;21436;52.348;20.928;2022-12-10T12:35:13;64.47;;;19.85;;
35326;SDS011;21436;52.348;20.928;2022-12-10T12:37:58;66.53;;;18.05;;
35326;SDS011;21436;52.348;20.928;2022-12-10T12:40:30;55.92;;;19.90;;
35326;SDS011;21436;52.348;20.928;2022-12-10T12:43:12;64.57;;;20.30;;
35326;SDS011;21436;52.348;20.928;2022-12-10T12:45:53;66.65;;;18.92;;
35326;SDS011;21436;52.348;20.928;2022-12-10T12:48:46;56.67;;;19.80;;
35326;SDS011;21436;52.348;20.928;2022-12-10T12:51:24;61.58;;;21.13;;
35326;SDS011;21436;52.348;20.928;2022-12-10T12:53:56;54.40;;;19.08;;
35326;SDS011;21436;52.348;20.928;2022-12-10T13:01:57;58.17;;;18.92;;
35326;SDS011;21436;52.348;20.928;2022-12-10T13:04:29;52.88;;;17.75;;
35326;SDS011;21436;52.348;20.928;2022-12-10T13:09:47;53.75;;;19.48;;
35326;SDS011;21436;52.348;20.928;2022-12-10T13:12:24;66.15;;;21.33;;
35326;SDS011;21436;52.348;20.928;2022-12-10T13:15:00;60.22;;;18.00;;
35326;SDS011;21436;52.348;20.928;2022-12-10T13:17:33;54.30;;;18.48;;
35326;SDS011;21436;52.348;20.928;2022-12-10T13:23:02;49.40;;;17.20;;
35326;SDS011;21436;52.348;20.928;2022-12-10T13:39:30;48.67;;;17.95;;
35326;SDS011;21436;52.348;20.928;2022-12-10T13:45:01;49.92;;;19.20;;
35326;SDS011;21436;52.348;20.928;2022-12-10T13:53:17;56.38;;;20.55;;
35326;SDS011;21436;52.348;20.928;2022-12-10T13:58:53;62.88;;;22.83;;
35326;SDS011;21436;52.348;20.928;2022-12-10T14:01:50;61.15;;;23.17;;
35326;SDS011;21436;52.348;20.928;2022-12-10T14:06:59;63.13;;;21.80;;
35326;SDS011;21436;52.348;20.928;2022-12-10T14:09:29;177.93;;;67.45;;
35326;SDS011;21436;52.348;20.928;2022-12-10T14:12:05;76.13;;;28.10;;
35326;SDS011;21436;52.348;20.928;2022-12-10T14:14:38;63.97;;;24.77;;
35326;SDS011;21436;52.348;20.928;2022-12-10T14:19:45;59.70;;;23.08;;
35326;SDS011;21436;52.348;20.928;2022-12-10T14:22:19;57.10;;;21.50;;
35326;SDS011;21436;52.348;20.928;2022-12-10T14:25:04;58.80;;;21.33;;
35326;SDS011;21436;52.348;20.928;2022-12-10T14:27:38;52.20;;;20.02;;
35326;SDS011;21436;52.348;20.928;2022-12-10T14:30:16;53.80;;;23.15;;
35326;SDS011;21436;52.348;20.928;2022-12-10T14:32:53;55.00;;;21.05;;
35326;SDS011;21436;52.348;20.928;2022-12-10T14:35:23;51.70;;;20.77;;
35326;SDS011;21436;52.348;20.928;2022-12-10T14:37:56;57.33;;;21.77;;
35326;SDS011;21436;52.348;20.928;2022-12-10T14:40:26;53.95;;;22.42;;
35326;SDS011;21436;52.348;20.928;2022-12-10T14:43:14;57.67;;;22.80;;
35326;SDS011;21436;52.348;20.928;2022-12-10T14:45:46;58.90;;;22.45;;
35326;SDS011;21436;52.348;20.928;2022-12-10T14:48:20;61.63;;;23.75;;
35326;SDS011;21436;52.348;20.928;2022-12-10T14:50:48;67.68;;;23.45;;
35326;SDS011;21436;52.348;20.928;2022-12-10T14:53:22;58.35;;;23.85;;
35326;SDS011;21436;52.348;20.928;2022-12-10T14:55:56;90.80;;;38.30;;
35326;SDS011;21436;52.348;20.928;2022-12-10T15:04:14;151.30;;;67.90;;
35326;SDS011;21436;52.348;20.928;2022-12-10T15:06:56;80.85;;;33.42;;
35326;SDS011;21436;52.348;20.928;2022-12-10T15:09:25;60.05;;;25.45;;
35326;SDS011;21436;52.348;20.928;2022-12-10T15:11:54;81.43;;;38.22;;
35326;SDS011;21436;52.348;20.928;2022-12-10T15:14:24;65.82;;;26.45;;
35326;SDS011;21436;52.348;20.928;2022-12-10T15:16:54;61.45;;;26.73;;
35326;SDS011;21436;52.348;20.928;2022-12-10T15:21:59;66.97;;;25.73;;
35326;SDS011;21436;52.348;20.928;2022-12-10T15:24:47;63.33;;;26.90;;
35326;SDS011;21436;52.348;20.928;2022-12-10T15:27:22;62.78;;;23.85;;
35326;SDS011;21436;52.348;20.928;2022-12-10T15:29:52;60.28;;;25.40;;
35326;SDS011;21436;52.348;20.928;2022-12-10T15:32:24;65.75;;;26.27;;
35326;SDS011;21436;52.348;20.928;2022-12-10T15:34:55;59.90;;;23.50;;
35326;SDS011;21436;52.348;20.928;2022-12-10T15:37:27;63.75;;;25.98;;
35326;SDS011;21436;52.348;20.928;2022-12-10T15:40:04;48.10;;;21.95;;
35326;SDS011;21436;52.348;20.928;2022-12-10T15:42:42;58.30;;;22.88;;
35326;SDS011;21436;52.348;20.928;2022-12-10T15:45:55;51.13;;;22.02;;
35326;SDS011;21436;52.348;20.928;2022-12-10T15:48:08;47.85;;;20.67;;
35326;SDS011;21436;52.348;20.928;2022-12-10T15:50:40;51.05;;;20.42;;
35326;SDS011;21436;52.348;20.928;2022-12-10T15:53:13;45.35;;;20.10;;
35326;SDS011;21436;52.348;20.928;2022-12-10T15:55:44;54.08;;;23.25;;
35326;SDS011;21436;52.348;20.928;2022-12-10T15:58:13;49.70;;;21.75;;
35326;SDS011;21436;52.348;20.928;2022-12-10T16:00:42;47.67;;;20.13;;
35326;SDS011;21436;52.348;20.928;2022-12-10T16:03:14;47.63;;;20.55;;
35326;SDS011;21436;52.348;20.928;2022-12-10T16:05:44;74.78;;;29.33;;
35326;SDS011;21436;52.348;20.928;2022-12-10T16:10:50;47.03;;;20.85;;
35326;SDS011;21436;52.348;20.928;2022-12-10T16:13:20;63.92;;;25.52;;
35326;SDS011;21436;52.348;20.928;2022-12-10T16:15:54;52.47;;;20.90;;
35326;SDS011;21436;52.348;20.928;2022-12-10T16:18:24;46.38;;;19.60;;
35326;SDS011;21436;52.348;20.928;2022-12-10T16:21:00;69.72;;;26.17;;
35326;SDS011;21436;52.348;20.928;2022-12-10T16:23:28;51.15;;;20.83;;
35326;SDS011;21436;52.348;20.928;2022-12-10T16:25:56;48.28;;;21.13;;
35326;SDS011;21436;52.348;20.928;2022-12-10T16:28:25;67.75;;;26.42;;
35326;SDS011;21436;52.348;20.928;2022-12-10T16:30:54;46.58;;;21.05;;
35326;SDS011;21436;52.348;20.928;2022-12-10T16:33:24;78.55;;;30.10;;
35326;SDS011;21436;52.348;20.928;2022-12-10T16:35:54;53.25;;;23.33;;